Time;durP1;ratioP1;P1;durP2;ratioP2;P2;SDS_P1;SDS_P2;PMS_P1;PMS_P2;Temp;Humidity;BMP_temperature;BMP_pressure;BME280_temperature;BME280_humidity;BME280_pressure;Samples;Min_cycle;Max_cycle;Signal;HPM_P1;HPM_P2
2023/09/14 00:00:47;;;;;;;3.50;2.10;;;14.40;99.90;;;;;;5099527;28;20203;-64
2023/09/14 00:03:12;;;;;;;2.90;2.40;;;14.40;99.90;;;;;;5100859;27;20172;-64
2023/09/14 00:05:43;;;;;;;2.47;2.27;;;14.40;99.90;;;;;;5098791;28;20437;-64
2023/09/14 00:08:09;;;;;;;4.03;2.00;;;14.40;99.90;;;;;;5096774;28;20427;-63
2023/09/14 00:10:36;;;;;;;4.50;2.43;;;14.30;99.90;;;;;;5099259;28;20433;-64
2023/09/14 00:13:02;;;;;;;2.37;2.10;;;14.20;99.90;;;;;;5099415;28;20466;-64
2023/09/14 00:15:28;;;;;;;3.83;2.70;;;14.30;99.90;;;;;;5093631;28;20417;-64
2023/09/14 00:17:54;;;;;;;3.73;2.17;;;14.20;99.90;;;;;;5094314;28;20505;-63
2023/09/14 00:20:23;;;;;;;2.73;2.03;;;14.20;99.90;;;;;;5095680;27;20919;-64
2023/09/14 00:22:53;;;;;;;4.67;2.30;;;14.20;99.90;;;;;;5087242;28;20423;-64
2023/09/14 00:25:20;;;;;;;4.23;2.17;;;14.20;99.90;;;;;;5094427;28;20449;-64
2023/09/14 00:27:46;;;;;;;5.10;1.90;;;14.20;99.90;;;;;;5099148;28;20927;-64
2023/09/14 00:30:13;;;;;;;2.97;2.33;;;14.20;99.90;;;;;;5094105;28;21003;-64
2023/09/14 00:32:39;;;;;;;2.13;1.93;;;14.20;99.90;;;;;;5087704;28;20558;-64
2023/09/14 00:35:12;;;;;;;4.30;2.00;;;14.30;99.90;;;;;;5091960;28;20449;-64
2023/09/14 00:37:38;;;;;;;7.33;2.70;;;14.20;99.90;;;;;;5095631;28;20931;-64
2023/09/14 00:40:08;;;;;;;4.73;3.13;;;14.30;99.90;;;;;;5091639;28;20430;-64
2023/09/14 00:42:42;;;;;;;2.80;2.30;;;14.20;99.90;;;;;;5090671;28;20418;-64
2023/09/14 00:45:09;;;;;;;3.10;2.40;;;14.20;99.90;;;;;;5092429;28;20422;-64
2023/09/14 00:47:36;;;;;;;3.17;2.20;;;14.20;99.90;;;;;;5090371;28;20924;-64
2023/09/14 00:50:04;;;;;;;4.47;2.57;;;14.10;99.90;;;;;;5090168;28;20434;-64
2023/09/14 00:52:32;;;;;;;4.80;2.23;;;14.10;99.90;;;;;;5090065;28;20495;-64
2023/09/14 00:54:58;;;;;;;5.20;2.20;;;14.00;99.90;;;;;;5090312;28;20775;-64
2023/09/14 00:57:24;;;;;;;3.53;2.30;;;14.00;99.90;;;;;;5092088;28;20420;-64
2023/09/14 00:59:50;;;;;;;5.57;3.37;;;14.00;99.90;;;;;;5086699;28;20845;-64
2023/09/14 01:02:17;;;;;;;3.63;2.90;;;14.00;99.90;;;;;;5092537;28;20414;-64
2023/09/14 01:04:43;;;;;;;3.50;2.20;;;14.00;99.90;;;;;;5089333;28;20487;-63
2023/09/14 01:07:09;;;;;;;2.90;2.63;;;14.00;99.90;;;;;;5091720;28;20415;-64
2023/09/14 01:09:35;;;;;;;4.80;3.00;;;14.00;99.90;;;;;;5090334;28;20192;-64
2023/09/14 01:12:03;;;;;;;5.37;3.60;;;14.00;99.90;;;;;;5087667;28;20462;-64
2023/09/14 01:14:36;;;;;;;4.20;2.70;;;14.10;99.90;;;;;;5091277;28;20548;-64
2023/09/14 01:17:12;;;;;;;9.23;3.00;;;14.10;99.90;;;;;;5090285;28;21206;-64
2023/09/14 01:19:39;;;;;;;5.10;2.63;;;14.10;99.90;;;;;;5089155;28;20419;-64
2023/09/14 01:22:49;;;;;;;6.10;2.93;;;14.10;99.90;;;;;;5088519;28;20518;-64
2023/09/14 01:25:25;;;;;;;4.43;3.10;;;14.10;99.90;;;;;;5009198;28;20475;-63
2023/09/14 01:27:51;;;;;;;4.00;2.60;;;14.00;99.90;;;;;;5078783;28;20490;-64
2023/09/14 01:30:17;;;;;;;6.50;2.87;;;14.00;99.90;;;;;;5092023;28;20413;-64
2023/09/14 01:32:42;;;;;;;3.83;2.70;;;14.00;99.90;;;;;;5086799;28;20208;-64
2023/09/14 01:35:08;;;;;;;6.30;3.23;;;13.90;99.90;;;;;;5088659;28;20298;-64
2023/09/14 01:37:34;;;;;;;5.10;3.20;;;13.80;99.90;;;;;;5089814;28;20862;-64
2023/09/14 01:40:01;;;;;;;8.47;3.10;;;13.80;99.90;;;;;;5090241;28;20179;-64
2023/09/14 01:42:28;;;;;;;4.10;3.10;;;13.80;99.90;;;;;;5090515;28;20422;-64
2023/09/14 01:44:54;;;;;;;5.27;2.90;;;13.80;99.90;;;;;;5088832;28;20989;-64
2023/09/14 01:47:20;;;;;;;5.73;3.20;;;13.80;99.90;;;;;;5088900;28;20429;-64
2023/09/14 01:49:45;;;;;;;5.40;2.80;;;13.70;99.90;;;;;;5088620;28;20180;-64
2023/09/14 01:52:11;;;;;;;5.20;3.10;;;13.70;99.90;;;;;;5090482;28;20207;-64
2023/09/14 01:54:37;;;;;;;3.73;2.60;;;13.60;99.90;;;;;;5086044;28;20196;-64
2023/09/14 01:57:03;;;;;;;7.13;4.00;;;13.70;99.90;;;;;;5089848;28;20271;-64
2023/09/14 01:59:29;;;;;;;4.87;2.90;;;13.70;99.90;;;;;;5087498;28;20211;-64
2023/09/14 02:01:54;;;;;;;5.97;3.40;;;13.60;99.90;;;;;;5087944;28;20502;-64
2023/09/14 02:04:20;;;;;;;4.07;3.20;;;13.60;99.90;;;;;;5088716;28;20194;-64
2023/09/14 02:06:45;;;;;;;6.20;3.40;;;13.60;99.90;;;;;;5088221;28;20208;-64
2023/09/14 02:09:11;;;;;;;5.23;3.00;;;13.60;99.90;;;;;;5088940;28;20184;-64
2023/09/14 02:11:37;;;;;;;5.70;3.00;;;13.60;99.90;;;;;;5087792;28;20519;-64
2023/09/14 02:14:03;;;;;;;4.07;2.63;;;13.60;99.90;;;;;;5089847;28;20180;-64
2023/09/14 02:16:29;;;;;;;6.60;2.93;;;13.60;99.90;;;;;;5090074;28;20188;-63
2023/09/14 02:18:54;;;;;;;5.07;2.80;;;13.50;99.90;;;;;;5088265;28;21274;-63
2023/09/14 02:21:20;;;;;;;4.80;3.00;;;13.50;99.90;;;;;;5094350;28;20195;-64
2023/09/14 02:23:46;;;;;;;4.37;3.27;;;13.50;99.90;;;;;;5087735;28;20173;-64
2023/09/14 02:26:11;;;;;;;4.17;3.07;;;13.40;99.90;;;;;;5090987;28;20750;-64
2023/09/14 02:28:37;;;;;;;6.13;2.87;;;13.50;99.90;;;;;;5088391;28;20188;-63
2023/09/14 02:31:10;;;;;;;3.60;2.80;;;13.50;99.90;;;;;;5086958;28;20199;-64
2023/09/14 02:33:37;;;;;;;8.33;3.60;;;13.50;99.90;;;;;;5087447;28;20825;-64
2023/09/14 02:36:03;;;;;;;5.20;2.97;;;13.60;99.90;;;;;;5089482;28;20431;-64
2023/09/14 02:38:29;;;;;;;6.93;2.90;;;13.70;99.90;;;;;;5089849;28;20421;-63
2023/09/14 02:40:54;;;;;;;5.93;3.13;;;13.70;99.90;;;;;;5085501;28;20547;-63
2023/09/14 02:43:20;;;;;;;11.23;3.30;;;13.70;99.90;;;;;;5088349;28;20274;-64
2023/09/14 02:45:45;;;;;;;3.73;2.97;;;13.80;99.90;;;;;;5087460;28;20195;-64
2023/09/14 02:48:11;;;;;;;8.70;3.80;;;13.80;99.90;;;;;;5089320;28;20180;-64
2023/09/14 02:50:37;;;;;;;5.77;3.07;;;13.70;99.90;;;;;;5085288;28;20180;-64
2023/09/14 02:53:03;;;;;;;4.63;3.57;;;13.70;99.90;;;;;;5089496;28;20354;-63
2023/09/14 02:55:28;;;;;;;6.17;2.80;;;13.60;99.90;;;;;;5087083;28;20646;-64
2023/09/14 02:57:54;;;;;;;3.60;2.40;;;13.60;99.90;;;;;;5088652;28;20589;-64
2023/09/14 03:00:20;;;;;;;3.80;2.80;;;13.50;99.90;;;;;;5092997;28;20221;-64
2023/09/14 03:02:46;;;;;;;3.20;2.87;;;13.50;99.90;;;;;;5087623;28;20176;-64
2023/09/14 03:05:11;;;;;;;2.30;2.10;;;13.50;99.90;;;;;;5093901;28;20275;-64
2023/09/14 03:07:38;;;;;;;4.40;3.17;;;13.50;99.90;;;;;;5091656;28;20507;-63
2023/09/14 03:10:05;;;;;;;5.30;2.80;;;13.50;99.90;;;;;;5093218;28;20180;-64
2023/09/14 03:12:30;;;;;;;4.10;3.10;;;13.50;99.90;;;;;;5092512;28;20494;-64
2023/09/14 03:14:56;;;;;;;4.33;2.97;;;13.60;99.90;;;;;;5089355;28;20426;-64
2023/09/14 03:17:22;;;;;;;4.53;2.67;;;13.60;99.90;;;;;;5094470;28;20188;-64
2023/09/14 03:19:48;;;;;;;3.50;2.50;;;13.70;99.90;;;;;;5091398;28;20202;-64
2023/09/14 03:22:14;;;;;;;3.67;2.70;;;13.60;99.90;;;;;;5094327;28;20201;-64
2023/09/14 03:24:40;;;;;;;4.77;2.70;;;13.70;99.90;;;;;;5091042;28;20419;-63
2023/09/14 03:27:06;;;;;;;4.57;2.50;;;13.80;99.90;;;;;;5090628;28;20506;-64
2023/09/14 03:29:32;;;;;;;2.90;2.70;;;13.70;99.90;;;;;;5092075;28;20179;-64
2023/09/14 03:31:58;;;;;;;3.67;3.20;;;13.80;99.90;;;;;;5089174;28;20318;-64
2023/09/14 03:34:23;;;;;;;3.43;3.00;;;13.80;99.90;;;;;;5093616;28;20904;-64
2023/09/14 03:36:49;;;;;;;5.90;2.90;;;13.80;99.90;;;;;;5091376;28;20207;-64
2023/09/14 03:39:15;;;;;;;3.23;2.80;;;13.80;99.90;;;;;;5091752;28;21471;-63
2023/09/14 03:41:41;;;;;;;6.50;3.07;;;13.80;99.90;;;;;;5090902;28;20450;-63
2023/09/14 03:44:06;;;;;;;6.80;3.00;;;13.80;99.90;;;;;;5091840;28;20238;-64
2023/09/14 03:46:32;;;;;;;3.07;2.60;;;13.90;99.90;;;;;;5089140;28;20183;-63
2023/09/14 03:48:58;;;;;;;4.10;2.80;;;13.90;99.90;;;;;;5091552;28;20224;-64
2023/09/14 03:51:23;;;;;;;6.17;3.33;;;13.90;99.90;;;;;;5092909;28;20207;-63
2023/09/14 03:53:49;;;;;;;6.90;2.70;;;13.90;99.90;;;;;;5086889;28;20180;-63
2023/09/14 03:56:15;;;;;;;4.63;3.10;;;13.90;99.90;;;;;;5093702;28;20177;-64
2023/09/14 03:58:42;;;;;;;3.17;2.70;;;13.90;99.90;;;;;;5087704;28;20215;-64
2023/09/14 04:01:08;;;;;;;6.07;2.70;;;13.90;99.90;;;;;;5092429;28;20422;-64
2023/09/14 04:03:34;;;;;;;5.00;3.10;;;14.00;99.90;;;;;;5090876;28;21248;-64
2023/09/14 04:05:59;;;;;;;5.53;2.60;;;14.00;99.90;;;;;;5091410;28;20182;-64
2023/09/14 04:08:26;;;;;;;7.43;3.10;;;14.00;99.90;;;;;;5092432;28;20555;-64
2023/09/14 04:10:52;;;;;;;4.00;2.90;;;14.10;99.90;;;;;;5088237;28;20192;-64
2023/09/14 04:13:32;;;;;;;5.57;2.90;;;14.10;99.90;;;;;;5092935;28;20468;-64
2023/09/14 04:16:00;;;;;;;3.80;2.97;;;14.10;99.90;;;;;;5090573;28;20430;-63
2023/09/14 04:18:27;;;;;;;5.13;2.90;;;14.00;99.90;;;;;;5092200;28;20430;-64
2023/09/14 04:20:53;;;;;;;4.13;2.30;;;14.10;99.90;;;;;;5090238;28;20947;-64
2023/09/14 04:23:19;;;;;;;4.03;3.00;;;14.10;99.90;;;;;;5092957;28;20424;-63
2023/09/14 04:25:49;;;;;;;5.43;2.80;;;14.10;99.90;;;;;;5087920;28;20423;-64
2023/09/14 04:28:16;;;;;;;4.60;2.77;;;14.10;99.90;;;;;;5093024;28;21250;-62
2023/09/14 04:31:10;;;;;;;3.70;2.80;;;14.10;99.90;;;;;;5089436;28;20545;-64
2023/09/14 04:33:36;;;;;;;3.80;2.60;;;14.10;99.90;;;;;;5099433;28;21356;-63
2023/09/14 04:36:05;;;;;;;3.50;2.50;;;14.10;99.90;;;;;;5090893;28;20438;-64
2023/09/14 04:38:32;;;;;;;6.53;3.13;;;14.10;99.90;;;;;;5090719;28;20433;-63
2023/09/14 04:41:03;;;;;;;4.83;3.30;;;14.10;99.90;;;;;;5090298;28;20458;-64
2023/09/14 04:43:29;;;;;;;3.30;2.50;;;14.10;99.90;;;;;;5090684;27;20426;-63
2023/09/14 04:45:55;;;;;;;4.33;3.10;;;14.00;99.90;;;;;;5087589;28;20468;-64
2023/09/14 04:48:20;;;;;;;7.63;3.03;;;14.00;99.90;;;;;;5092903;28;20417;-63
2023/09/14 04:50:46;;;;;;;6.43;3.47;;;14.00;99.90;;;;;;5088671;28;20211;-64
2023/09/14 04:53:12;;;;;;;4.83;2.57;;;13.90;99.90;;;;;;5095145;28;20214;-64
2023/09/14 04:55:37;;;;;;;4.30;3.23;;;13.90;99.90;;;;;;5097863;28;20179;-64
2023/09/14 04:58:04;;;;;;;4.87;2.60;;;13.90;99.90;;;;;;5091267;28;20255;-63
2023/09/14 05:00:30;;;;;;;4.80;3.43;;;14.00;99.90;;;;;;5096892;28;20181;-63
2023/09/14 05:02:56;;;;;;;4.47;3.20;;;14.00;99.90;;;;;;5104253;28;20418;-64
2023/09/14 05:05:21;;;;;;;3.97;2.90;;;14.00;99.90;;;;;;5101568;28;20191;-64
2023/09/14 05:07:47;;;;;;;6.23;3.40;;;14.00;99.90;;;;;;5102894;28;20175;-64
2023/09/14 05:10:13;;;;;;;4.30;3.17;;;14.00;99.90;;;;;;5096732;28;20176;-64
2023/09/14 05:12:39;;;;;;;4.40;3.60;;;14.00;99.90;;;;;;5094103;28;20242;-64
2023/09/14 05:15:05;;;;;;;7.60;3.07;;;14.10;99.90;;;;;;5090614;28;21160;-64
2023/09/14 05:17:30;;;;;;;4.30;3.33;;;14.10;99.90;;;;;;5089936;27;20186;-64
2023/09/14 05:19:56;;;;;;;5.37;3.27;;;14.10;99.90;;;;;;5089371;28;20419;-64
2023/09/14 05:22:25;;;;;;;6.50;3.13;;;14.10;99.90;;;;;;5090938;28;20183;-64
2023/09/14 05:24:51;;;;;;;5.23;3.37;;;14.20;99.90;;;;;;5094243;28;20193;-65
2023/09/14 05:27:17;;;;;;;4.77;3.20;;;14.10;99.90;;;;;;5096645;28;20421;-64
2023/09/14 05:29:44;;;;;;;6.73;4.17;;;14.10;99.90;;;;;;5095849;28;20184;-64
2023/09/14 05:32:11;;;;;;;4.23;3.60;;;14.20;99.90;;;;;;5095221;28;20563;-65
2023/09/14 05:34:37;;;;;;;4.97;3.50;;;14.20;99.90;;;;;;5095086;28;20418;-64
2023/09/14 05:37:03;;;;;;;6.40;3.53;;;14.20;99.90;;;;;;5092353;28;20485;-65
2023/09/14 05:39:28;;;;;;;4.93;3.20;;;14.20;99.90;;;;;;5087322;28;20446;-64
2023/09/14 05:41:54;;;;;;;5.20;3.53;;;14.20;99.90;;;;;;5088836;28;20422;-65
2023/09/14 05:44:20;;;;;;;7.70;4.47;;;14.20;99.90;;;;;;5091114;28;20183;-64
2023/09/14 05:46:46;;;;;;;4.77;3.43;;;14.20;99.90;;;;;;5088556;28;20223;-64
2023/09/14 05:49:12;;;;;;;5.27;3.90;;;14.20;99.90;;;;;;5089395;28;20679;-64
2023/09/14 05:51:37;;;;;;;4.80;3.57;;;14.30;99.90;;;;;;5094528;28;20584;-64
2023/09/14 05:54:03;;;;;;;4.97;3.37;;;14.30;99.90;;;;;;5096163;28;20243;-64
2023/09/14 05:56:29;;;;;;;7.23;4.00;;;14.30;99.90;;;;;;5096343;28;20184;-65
2023/09/14 05:58:55;;;;;;;4.63;3.27;;;14.30;99.90;;;;;;5086102;28;20176;-65
2023/09/14 06:01:20;;;;;;;6.00;4.17;;;14.30;99.90;;;;;;5090412;28;20183;-64
2023/09/14 06:03:46;;;;;;;5.10;3.50;;;14.40;99.90;;;;;;5088228;28;20173;-64
2023/09/14 06:06:12;;;;;;;5.97;3.57;;;14.40;99.90;;;;;;5088242;28;20291;-65
2023/09/14 06:08:37;;;;;;;5.47;3.43;;;14.50;99.90;;;;;;5087871;28;20638;-65
2023/09/14 06:11:03;;;;;;;8.00;4.20;;;14.50;99.90;;;;;;5088822;28;20433;-63
2023/09/14 06:13:29;;;;;;;4.20;3.80;;;14.50;99.90;;;;;;5089216;28;20213;-64
2023/09/14 06:15:54;;;;;;;5.37;3.90;;;14.60;99.90;;;;;;5089626;28;20695;-64
2023/09/14 06:18:20;;;;;;;7.17;4.27;;;14.70;99.90;;;;;;5088332;28;20707;-63
2023/09/14 06:20:46;;;;;;;6.13;4.70;;;14.60;99.90;;;;;;5099954;28;20206;-64
2023/09/14 06:23:12;;;;;;;9.10;4.03;;;14.60;99.90;;;;;;5102611;28;20182;-64
2023/09/14 06:25:37;;;;;;;7.70;4.50;;;14.70;99.90;;;;;;5097293;28;20184;-64
2023/09/14 06:28:03;;;;;;;5.37;4.37;;;14.60;99.90;;;;;;5093674;28;20507;-64
2023/09/14 06:30:29;;;;;;;6.87;5.20;;;14.60;99.90;;;;;;5092861;28;20188;-64
2023/09/14 06:32:55;;;;;;;6.47;4.47;;;14.70;99.90;;;;;;5093516;28;20302;-65
2023/09/14 06:35:21;;;;;;;6.50;4.57;;;14.80;99.90;;;;;;5092763;28;20513;-65
2023/09/14 06:37:47;;;;;;;7.30;4.70;;;14.70;99.90;;;;;;5097895;28;20215;-65
2023/09/14 06:40:14;;;;;;;5.40;3.97;;;14.80;99.90;;;;;;5102195;28;20187;-65
2023/09/14 06:42:41;;;;;;;8.10;4.80;;;14.80;99.90;;;;;;5098779;28;20172;-65
2023/09/14 06:45:08;;;;;;;5.27;4.20;;;14.90;99.90;;;;;;5095173;27;20422;-65
2023/09/14 06:47:33;;;;;;;4.87;3.83;;;15.00;99.90;;;;;;5088735;28;20422;-64
2023/09/14 06:49:59;;;;;;;8.27;3.90;;;15.00;99.90;;;;;;5092430;28;20418;-64
2023/09/14 06:52:25;;;;;;;7.13;4.50;;;15.00;99.90;;;;;;5093274;28;20592;-64
2023/09/14 06:54:51;;;;;;;6.10;4.20;;;15.00;99.90;;;;;;5098698;28;20578;-64
2023/09/14 06:57:16;;;;;;;6.43;4.40;;;15.10;99.90;;;;;;5102471;28;20191;-64
2023/09/14 06:59:42;;;;;;;6.73;4.30;;;15.10;99.90;;;;;;5098300;28;20640;-64
2023/09/14 07:02:14;;;;;;;7.90;4.73;;;15.10;99.90;;;;;;5099674;28;20664;-64
2023/09/14 07:05:27;;;;;;;6.57;4.00;;;15.10;99.90;;;;;;5097800;28;20738;-64
2023/09/14 07:08:05;;;;;;;9.33;5.33;;;15.20;99.90;;;;;;5032383;28;21213;-64
2023/09/14 07:14:13;;;;;;;8.50;4.13;;;15.30;99.90;;;;;;5094024;28;20447;-64
2023/09/14 07:16:44;;;;;;;7.30;4.20;;;15.50;99.90;;;;;;5060926;28;20433;-64
2023/09/14 07:19:51;;;;;;;20.97;5.80;;;15.50;99.90;;;;;;5093312;28;20426;-64
2023/09/14 07:22:18;;;;;;;7.33;4.00;;;15.60;99.90;;;;;;5041557;28;20428;-64
2023/09/14 07:24:53;;;;;;;8.77;4.60;;;15.60;99.90;;;;;;5042949;28;20447;-64
2023/09/14 07:27:21;;;;;;;5.93;4.33;;;15.60;99.90;;;;;;5041981;28;20436;-64
2023/09/14 07:29:50;;;;;;;8.50;4.47;;;15.60;99.90;;;;;;5054247;28;20438;-64
2023/09/14 07:32:21;;;;;;;6.10;5.10;;;15.60;99.90;;;;;;5091860;28;20477;-64
2023/09/14 07:35:00;;;;;;;9.17;4.73;;;15.60;99.90;;;;;;5089813;28;20421;-64
2023/09/14 07:37:25;;;;;;;8.80;5.87;;;15.70;99.90;;;;;;5087281;28;20433;-64
2023/09/14 07:39:54;;;;;;;8.17;6.30;;;15.80;99.90;;;;;;5090875;28;20445;-64
2023/09/14 07:42:20;;;;;;;6.73;4.77;;;15.80;99.90;;;;;;5090174;28;20220;-64
2023/09/14 07:44:48;;;;;;;10.80;5.20;;;15.90;99.90;;;;;;5091027;28;21228;-64
2023/09/14 07:47:28;;;;;;;11.90;5.83;;;16.00;99.90;;;;;;5090711;28;20179;-63
2023/09/14 07:50:06;;;;;;;8.40;5.50;;;16.10;99.90;;;;;;5090027;28;20429;-64
2023/09/14 07:52:51;;;;;;;7.87;5.50;;;16.10;99.90;;;;;;5089450;28;20469;-64
2023/09/14 07:55:16;;;;;;;10.93;6.03;;;16.20;99.90;;;;;;5090228;28;20522;-63
2023/09/14 07:58:12;;;;;;;8.70;5.87;;;16.30;99.90;;;;;;5089230;28;20418;-64
2023/09/14 08:00:38;;;;;;;7.67;5.03;;;16.40;99.90;;;;;;5087731;28;20215;-63
2023/09/14 08:03:04;;;;;;;8.80;5.60;;;16.50;99.90;;;;;;5090981;28;20438;-64
2023/09/14 08:05:36;;;;;;;11.40;6.07;;;16.60;99.90;;;;;;5091083;28;20432;-64
2023/09/14 08:08:03;;;;;;;6.93;5.47;;;16.80;99.90;;;;;;5090855;28;20927;-64
2023/09/14 08:10:29;;;;;;;11.40;5.97;;;16.90;99.90;;;;;;5088618;28;20457;-64
2023/09/14 08:12:54;;;;;;;11.77;6.70;;;16.90;99.90;;;;;;5089888;28;20908;-63
2023/09/14 08:15:39;;;;;;;10.00;5.57;;;17.00;99.90;;;;;;5089378;28;20196;-64
2023/09/14 08:18:08;;;;;;;7.63;5.40;;;17.20;99.90;;;;;;5090979;28;20188;-64
2023/09/14 08:20:43;;;;;;;7.10;6.07;;;17.30;99.90;;;;;;5090303;28;20436;-64
2023/09/14 08:23:36;;;;;;;11.93;6.60;;;17.40;99.90;;;;;;5091038;28;20863;-64
2023/09/14 08:26:10;;;;;;;9.90;6.63;;;17.40;99.90;;;;;;5075496;28;20844;-64
2023/09/14 08:28:36;;;;;;;8.93;5.83;;;17.60;99.90;;;;;;5090015;28;20424;-64
2023/09/14 08:31:21;;;;;;;8.03;6.40;;;17.60;99.90;;;;;;5089112;28;20438;-63
2023/09/14 08:33:55;;;;;;;7.00;6.00;;;17.70;99.90;;;;;;5089889;28;20181;-64
2023/09/14 08:36:28;;;;;;;10.30;6.30;;;17.60;99.90;;;;;;5091228;28;20485;-63
2023/09/14 08:38:59;;;;;;;9.50;5.90;;;17.60;99.90;;;;;;5089329;28;20482;-63
2023/09/14 08:41:47;;;;;;;12.97;6.50;;;17.60;99.90;;;;;;5088443;28;20909;-63
2023/09/14 08:44:23;;;;;;;8.13;6.10;;;17.60;99.90;;;;;;5089117;28;20812;-64
2023/09/14 08:46:55;;;;;;;9.53;6.27;;;17.60;99.90;;;;;;5089863;28;20900;-64
2023/09/14 08:49:34;;;;;;;8.53;5.00;;;17.50;99.90;;;;;;5091013;28;20426;-63
2023/09/14 08:52:28;;;;;;;7.33;4.40;;;17.60;99.90;;;;;;5089497;28;20884;-64
2023/09/14 08:54:55;;;;;;;7.07;4.27;;;17.70;99.90;;;;;;5087112;28;20422;-64
2023/09/14 08:57:27;;;;;;;4.40;3.47;;;17.90;99.90;;;;;;5090617;28;20977;-63
2023/09/14 09:00:18;;;;;;;5.37;3.97;;;18.00;99.90;;;;;;5087535;28;20415;-64
2023/09/14 09:02:53;;;;;;;8.93;4.67;;;18.10;99.90;;;;;;5088039;28;20457;-64
2023/09/14 09:05:27;;;;;;;5.43;3.90;;;18.20;99.90;;;;;;5090584;28;20453;-64
2023/09/14 09:07:59;;;;;;;5.60;3.60;;;18.20;99.90;;;;;;5086765;28;20426;-63
2023/09/14 09:10:31;;;;;;;5.00;3.30;;;18.40;99.90;;;;;;5088135;28;20441;-63
2023/09/14 09:13:01;;;;;;;4.80;3.43;;;18.50;99.90;;;;;;5088940;28;20488;-64
2023/09/14 09:15:28;;;;;;;5.63;2.67;;;18.60;99.90;;;;;;5085437;28;20445;-64
2023/09/14 09:21:33;;;;;;;6.90;2.73;;;18.80;99.90;;;;;;5082261;28;20438;-64
2023/09/14 09:24:13;;;;;;;6.23;3.70;;;18.90;99.90;;;;;;5088233;28;20464;-63
2023/09/14 09:26:42;;;;;;;3.90;2.67;;;18.90;99.90;;;;;;5088195;28;20427;-63
2023/09/14 09:29:22;;;;;;;6.83;2.87;;;19.00;99.90;;;;;;5089833;28;20430;-63
2023/09/14 09:31:50;;;;;;;5.43;2.77;;;19.10;99.90;;;;;;5088051;28;20477;-63
2023/09/14 09:34:52;;;;;;;3.50;1.97;;;19.20;99.90;;;;;;5089975;28;20463;-63
2023/09/14 09:37:18;;;;;;;3.37;2.07;;;19.20;99.90;;;;;;5088887;28;21045;-62
2023/09/14 09:39:44;;;;;;;5.73;3.37;;;19.40;99.90;;;;;;5088271;28;20457;-63
2023/09/14 09:42:38;;;;;;;5.60;2.73;;;19.50;99.90;;;;;;5084136;28;20446;-63
2023/09/14 09:48:33;;;;;;;2.80;2.47;;;19.40;99.90;;;;;;5058973;28;20554;-63
2023/09/14 09:51:06;;;;;;;4.23;2.57;;;19.50;99.90;;;;;;5060136;28;20418;-62
2023/09/14 09:54:27;;;;;;;5.20;2.90;;;19.60;99.90;;;;;;5058832;28;20259;-63
2023/09/14 09:57:30;;;;;;;6.50;3.00;;;19.50;99.90;;;;;;4949528;28;22068;-63
2023/09/14 10:00:07;;;;;;;5.23;2.60;;;19.60;99.90;;;;;;4989283;28;20536;-63
2023/09/14 10:02:33;;;;;;;5.57;3.10;;;19.40;99.90;;;;;;5014312;28;20433;-63
2023/09/14 10:04:59;;;;;;;4.60;3.27;;;19.30;99.90;;;;;;5046564;28;20430;-65
2023/09/14 10:07:25;;;;;;;4.87;3.40;;;19.40;99.90;;;;;;5082691;28;20172;-65
2023/09/14 10:09:53;;;;;;;4.73;3.13;;;19.40;99.90;;;;;;5094818;28;20183;-65
2023/09/14 10:12:26;;;;;;;7.00;3.00;;;19.50;99.90;;;;;;5095021;28;20509;-65
2023/09/14 10:14:55;;;;;;;5.67;3.00;;;19.40;99.90;;;;;;5097817;28;21029;-65
2023/09/14 10:17:26;;;;;;;4.03;2.60;;;19.50;99.90;;;;;;5097779;28;21224;-65
2023/09/14 10:19:52;;;;;;;4.80;3.10;;;19.60;99.90;;;;;;5097678;28;20517;-65
2023/09/14 10:22:21;;;;;;;4.00;2.40;;;19.70;99.90;;;;;;5096713;28;20477;-65
2023/09/14 10:24:47;;;;;;;4.70;2.97;;;19.80;99.90;;;;;;5090878;28;20422;-65
2023/09/14 10:27:15;;;;;;;4.30;2.40;;;19.90;99.90;;;;;;5094812;28;20447;-64
2023/09/14 10:29:42;;;;;;;5.80;2.77;;;19.90;99.90;;;;;;5092017;28;20445;-64
2023/09/14 10:32:10;;;;;;;4.10;2.77;;;19.90;99.90;;;;;;5093203;28;20484;-65
2023/09/14 10:34:39;;;;;;;3.13;2.53;;;19.70;99.90;;;;;;5102952;28;20547;-65
2023/09/14 10:37:06;;;;;;;2.97;2.30;;;19.70;99.90;;;;;;5103759;28;20422;-65
2023/09/14 10:39:34;;;;;;;4.30;2.20;;;19.80;99.90;;;;;;5102943;28;20414;-64
2023/09/14 10:41:59;;;;;;;5.07;2.33;;;19.70;99.90;;;;;;5103493;28;20821;-65
2023/09/14 10:44:27;;;;;;;3.10;2.07;;;19.50;99.90;;;;;;5102866;28;20410;-65
2023/09/14 10:46:57;;;;;;;3.27;2.40;;;19.50;99.90;;;;;;5103456;28;20756;-65
2023/09/14 10:49:31;;;;;;;4.43;2.37;;;19.50;99.90;;;;;;5102842;28;20440;-65
2023/09/14 10:51:57;;;;;;;3.03;2.20;;;19.50;99.90;;;;;;5103572;28;20535;-65
2023/09/14 10:54:25;;;;;;;5.50;2.13;;;19.40;99.90;;;;;;5102916;28;20559;-64
2023/09/14 10:56:59;;;;;;;3.50;2.20;;;19.30;99.90;;;;;;5103375;28;20168;-65
2023/09/14 10:59:47;;;;;;;3.37;2.17;;;19.40;99.90;;;;;;5090156;28;20449;-65
2023/09/14 11:02:39;;;;;;;3.90;2.00;;;19.40;99.90;;;;;;5082314;28;20426;-63
2023/09/14 11:05:10;;;;;;;2.83;2.33;;;19.30;99.90;;;;;;5082996;28;20426;-65
2023/09/14 11:08:00;;;;;;;4.57;3.70;;;19.30;99.90;;;;;;5082709;28;20422;-65
2023/09/14 11:10:27;;;;;;;2.70;2.30;;;19.40;99.90;;;;;;5074590;28;20422;-65
2023/09/14 11:13:19;;;;;;;4.50;3.00;;;19.40;99.90;;;;;;5082979;28;20545;-65
2023/09/14 11:16:18;;;;;;;2.90;2.30;;;19.40;99.90;;;;;;5082908;28;21254;-64
2023/09/14 11:18:44;;;;;;;5.43;2.30;;;19.40;99.90;;;;;;5069967;28;20430;-64
2023/09/14 11:21:45;;;;;;;4.07;2.87;;;19.50;99.90;;;;;;5082829;28;20415;-64
2023/09/14 11:24:12;;;;;;;3.67;2.70;;;19.40;99.90;;;;;;5019748;28;20178;-65
2023/09/14 11:26:44;;;;;;;3.77;2.80;;;19.50;99.90;;;;;;5074007;28;20479;-65
2023/09/14 11:29:11;;;;;;;6.50;2.93;;;19.60;99.90;;;;;;5086096;28;20425;-65
2023/09/14 11:31:37;;;;;;;5.17;2.50;;;19.60;99.90;;;;;;5093300;28;20551;-64
2023/09/14 11:34:11;;;;;;;3.80;2.63;;;19.70;99.90;;;;;;5106895;28;20533;-65
2023/09/14 11:36:37;;;;;;;4.23;2.77;;;19.70;99.90;;;;;;5106945;28;20175;-65
2023/09/14 11:39:13;;;;;;;3.60;2.90;;;19.70;99.90;;;;;;5106959;28;20740;-65
2023/09/14 11:42:04;;;;;;;6.70;2.43;;;19.70;99.90;;;;;;5106873;28;20459;-64
2023/09/14 11:44:31;;;;;;;3.10;2.80;;;19.60;99.90;;;;;;5106266;28;21213;-64
2023/09/14 11:47:01;;;;;;;4.03;3.10;;;19.60;99.90;;;;;;5106366;28;20456;-65
2023/09/14 11:49:31;;;;;;;6.60;3.13;;;19.50;99.90;;;;;;5105997;28;20424;-65
2023/09/14 11:51:57;;;;;;;2.77;2.33;;;19.50;99.90;;;;;;5105847;27;20506;-65
2023/09/14 11:54:32;;;;;;;4.10;2.50;;;19.60;99.90;;;;;;5105490;28;20420;-64
2023/09/14 11:57:00;;;;;;;3.23;2.70;;;19.60;99.90;;;;;;5106337;28;21138;-65
2023/09/14 11:59:30;;;;;;;4.37;2.90;;;19.60;99.90;;;;;;5105612;28;20437;-64
2023/09/14 12:01:56;;;;;;;5.40;2.93;;;19.60;99.90;;;;;;5106395;28;20933;-65
2023/09/14 12:04:25;;;;;;;6.10;2.97;;;19.60;99.90;;;;;;5105758;28;20421;-65
2023/09/14 12:06:51;;;;;;;4.33;3.40;;;19.60;99.90;;;;;;5106191;28;20427;-65
2023/09/14 12:09:17;;;;;;;4.63;2.63;;;19.60;99.90;;;;;;5104195;28;20421;-64
2023/09/14 12:11:44;;;;;;;4.20;2.80;;;19.50;99.90;;;;;;5105830;28;20206;-65
2023/09/14 12:14:09;;;;;;;3.40;2.77;;;19.40;99.90;;;;;;5105601;28;20176;-64
2023/09/14 12:16:38;;;;;;;5.40;2.80;;;19.40;99.90;;;;;;5105714;28;20430;-65
2023/09/14 12:19:04;;;;;;;4.93;3.00;;;19.50;99.90;;;;;;5105995;28;20922;-65
2023/09/14 12:21:29;;;;;;;5.13;3.60;;;19.60;99.90;;;;;;5105366;28;20417;-65
2023/09/14 12:23:56;;;;;;;4.57;3.00;;;19.80;99.90;;;;;;5106295;28;20607;-65
2023/09/14 12:26:22;;;;;;;5.37;2.70;;;20.00;99.90;;;;;;5105063;28;20239;-64
2023/09/14 12:28:56;;;;;;;5.10;3.03;;;20.10;99.90;;;;;;5105926;28;20433;-65
2023/09/14 12:31:25;;;;;;;7.30;2.70;;;20.20;99.90;;;;;;5099516;28;20438;-65
2023/09/14 12:33:52;;;;;;;3.07;2.77;;;20.40;99.90;;;;;;5085516;28;20487;-65
2023/09/14 12:36:18;;;;;;;6.90;3.20;;;20.40;99.90;;;;;;5084060;28;20533;-64
2023/09/14 12:38:46;;;;;;;5.27;3.10;;;20.40;99.90;;;;;;5085080;28;20855;-65
2023/09/14 12:41:13;;;;;;;4.70;3.00;;;20.30;99.90;;;;;;5084555;28;20835;-65
2023/09/14 12:43:39;;;;;;;5.53;3.03;;;20.20;99.90;;;;;;5085543;28;20468;-64
2023/09/14 12:46:04;;;;;;;6.83;3.43;;;20.20;99.90;;;;;;5084822;28;21250;-65
2023/09/14 12:48:30;;;;;;;6.43;3.77;;;20.30;99.90;;;;;;5084914;28;20271;-65
2023/09/14 12:50:59;;;;;;;4.43;2.83;;;20.30;99.90;;;;;;5084924;28;20230;-65
2023/09/14 12:53:28;;;;;;;4.50;2.50;;;20.20;99.90;;;;;;5084163;28;20468;-64
2023/09/14 12:55:54;;;;;;;4.40;2.73;;;20.10;99.90;;;;;;5084705;28;20536;-65
2023/09/14 12:58:21;;;;;;;3.57;2.80;;;20.20;99.90;;;;;;5087392;28;20586;-65
2023/09/14 13:00:49;;;;;;;3.27;2.87;;;20.30;99.90;;;;;;5105315;28;20418;-65
2023/09/14 13:03:18;;;;;;;3.00;2.70;;;20.50;99.90;;;;;;5104797;28;20422;-64
2023/09/14 13:05:44;;;;;;;4.93;4.13;;;20.60;99.90;;;;;;5105236;28;20434;-65
2023/09/14 13:08:10;;;;;;;3.50;2.90;;;20.90;99.90;;;;;;5082359;28;20455;-64